Time;durP1;ratioP1;P1;durP2;ratioP2;P2;SDS_P1;SDS_P2;PMS_P1;PMS_P2;Temp;Humidity;BMP_temperature;BMP_pressure;BME280_temperature;BME280_humidity;BME280_pressure;Samples;Min_cycle;Max_cycle;Signal;HPM_P1;HPM_P2
2022/10/06 00:00:53;;;;;;;3.83;1.15;;;13.20;99.90;;;;;;3058248;19;20015;-67
2022/10/06 00:01:54;;;;;;;6.22;1.10;;;13.20;99.90;;;;;;3058304;19;20015;-68
2022/10/06 00:02:58;;;;;;;4.57;1.38;;;13.10;99.90;;;;;;3058480;19;20007;-68
2022/10/06 00:03:59;;;;;;;9.63;1.58;;;13.20;99.90;;;;;;3056813;19;20034;-68
2022/10/06 00:05:10;;;;;;;6.18;1.58;;;13.70;99.90;;;;;;3058130;19;20014;-68
2022/10/06 00:06:13;;;;;;;7.68;1.40;;;13.20;99.90;;;;;;3058212;19;20345;-67
2022/10/06 00:07:18;;;;;;;5.28;1.20;;;13.20;99.90;;;;;;3058165;19;20019;-68
2022/10/06 00:08:19;;;;;;;7.53;1.50;;;13.20;99.90;;;;;;3058787;19;20497;-68
2022/10/06 00:09:23;;;;;;;6.80;1.02;;;13.20;99.90;;;;;;3058696;19;20010;-68
2022/10/06 00:10:24;;;;;;;8.15;1.20;;;13.10;99.90;;;;;;3057728;19;20022;-68
2022/10/06 00:11:28;;;;;;;7.60;1.40;;;13.10;99.90;;;;;;3058073;19;20364;-68
2022/10/06 00:12:38;;;;;;;6.10;1.58;;;13.10;99.90;;;;;;3058246;19;20011;-68
2022/10/06 00:13:42;;;;;;;6.65;1.20;;;13.10;99.90;;;;;;3058669;19;20010;-68
2022/10/06 00:14:44;;;;;;;3.28;0.98;;;13.10;99.90;;;;;;3058221;19;20017;-67
2022/10/06 00:15:47;;;;;;;4.53;1.20;;;13.20;99.90;;;;;;3058021;19;20481;-68
2022/10/06 00:16:49;;;;;;;8.00;1.20;;;13.00;99.90;;;;;;3058167;19;20002;-68
2022/10/06 00:17:53;;;;;;;5.88;1.50;;;13.20;99.90;;;;;;3057931;19;20010;-68
2022/10/06 00:18:55;;;;;;;6.93;1.40;;;14.20;99.90;;;;;;3058210;19;20034;-68
2022/10/06 00:19:59;;;;;;;5.15;1.20;;;13.10;99.90;;;;;;3057931;19;20026;-67
2022/10/06 00:21:03;;;;;;;6.40;1.15;;;13.10;99.90;;;;;;3058100;19;20011;-68
2022/10/06 00:22:06;;;;;;;5.35;1.23;;;12.90;99.90;;;;;;3057901;19;20002;-67
2022/10/06 00:23:08;;;;;;;7.63;1.60;;;13.20;99.90;;;;;;3057697;19;20014;-68
2022/10/06 00:24:12;;;;;;;5.30;1.13;;;13.00;99.90;;;;;;3057810;19;20043;-67
2022/10/06 00:25:17;;;;;;;4.55;1.50;;;13.20;99.90;;;;;;3059562;19;20011;-68
2022/10/06 00:26:21;;;;;;;6.32;1.73;;;13.00;99.90;;;;;;3057806;19;20010;-68
2022/10/06 00:27:22;;;;;;;8.70;1.33;;;12.90;99.90;;;;;;3058226;19;20023;-68
2022/10/06 00:28:29;;;;;;;6.47;1.77;;;13.10;99.90;;;;;;3057835;19;20021;-68
2022/10/06 00:29:30;;;;;;;3.88;0.90;;;13.00;99.90;;;;;;3058084;19;20010;-68
2022/10/06 00:30:34;;;;;;;3.63;1.02;;;13.00;99.90;;;;;;3057737;19;20011;-68
2022/10/06 00:31:35;;;;;;;6.45;1.50;;;13.00;99.90;;;;;;3057993;19;20074;-68
2022/10/06 00:32:40;;;;;;;9.30;1.63;;;12.90;99.90;;;;;;3057876;19;20018;-67
2022/10/06 00:33:42;;;;;;;6.03;1.02;;;13.00;99.90;;;;;;3059423;19;20022;-68
2022/10/06 00:34:45;;;;;;;5.88;1.13;;;12.90;99.90;;;;;;3057843;19;20023;-68
2022/10/06 00:35:47;;;;;;;4.20;1.40;;;13.00;99.90;;;;;;3057946;19;20486;-67
2022/10/06 00:36:51;;;;;;;6.90;1.60;;;13.00;99.90;;;;;;3057715;19;20003;-67
2022/10/06 00:37:52;;;;;;;8.02;1.17;;;12.90;99.90;;;;;;3057913;19;20019;-68
2022/10/06 00:38:57;;;;;;;9.35;1.70;;;12.80;99.90;;;;;;3057737;19;20005;-68
2022/10/06 00:39:58;;;;;;;6.40;1.45;;;13.10;99.90;;;;;;3057978;19;20010;-68
2022/10/06 00:41:02;;;;;;;5.93;1.27;;;12.90;99.90;;;;;;3057665;19;20372;-68
2022/10/06 00:42:04;;;;;;;7.30;1.50;;;12.90;99.90;;;;;;3059160;19;20011;-68
2022/10/06 00:43:08;;;;;;;5.70;1.05;;;12.80;99.90;;;;;;3057297;19;20393;-67
2022/10/06 00:44:12;;;;;;;6.40;1.33;;;12.80;99.90;;;;;;3058125;19;20017;-68
2022/10/06 00:45:17;;;;;;;9.50;1.88;;;12.80;99.90;;;;;;3057617;19;20014;-67
2022/10/06 00:46:38;;;;;;;8.57;1.30;;;12.90;99.90;;;;;;3059464;19;20025;-68
2022/10/06 00:47:40;;;;;;;7.10;1.40;;;12.80;99.90;;;;;;3057725;19;20467;-68
2022/10/06 00:48:42;;;;;;;;;;;12.80;99.90;;;;;;3058233;19;19998;-68
2022/10/06 00:49:47;;;;;;;5.15;1.08;;;12.80;99.90;;;;;;3059119;19;19946;-67
2022/10/06 00:50:51;;;;;;;7.50;1.33;;;12.80;99.90;;;;;;3057755;19;20018;-68
2022/10/06 00:51:59;;;;;;;5.00;1.33;;;12.80;99.90;;;;;;3058938;19;20019;-67
2022/10/06 00:53:01;;;;;;;7.28;1.58;;;12.70;99.90;;;;;;3059527;19;20092;-68
2022/10/06 00:54:05;;;;;;;5.68;1.50;;;12.70;99.90;;;;;;3058396;19;20038;-67
2022/10/06 00:55:08;;;;;;;5.63;1.02;;;13.00;99.90;;;;;;3059893;19;20033;-68
2022/10/06 00:56:13;;;;;;;6.93;1.50;;;12.90;99.90;;;;;;3062143;19;20043;-67
2022/10/06 00:57:15;;;;;;;6.55;1.10;;;12.90;99.90;;;;;;3058465;19;20017;-68
2022/10/06 00:58:19;;;;;;;6.00;1.45;;;12.90;99.90;;;;;;3059794;19;20018;-68
2022/10/06 00:59:25;;;;;;;7.38;1.33;;;12.80;99.90;;;;;;3058589;19;20031;-68
2022/10/06 01:00:27;;;;;;;7.43;1.40;;;12.80;99.90;;;;;;3057779;19;20007;-68
2022/10/06 01:01:33;;;;;;;9.38;1.75;;;13.00;99.90;;;;;;3058407;19;20026;-68
2022/10/06 01:02:39;;;;;;;6.05;1.40;;;13.20;99.90;;;;;;3057187;19;20372;-67
2022/10/06 01:03:48;;;;;;;7.30;1.30;;;12.80;99.90;;;;;;3057736;19;20020;-68
2022/10/06 01:04:54;;;;;;;5.30;1.52;;;12.80;99.90;;;;;;3058257;19;20017;-68
2022/10/06 01:06:00;;;;;;;8.13;1.30;;;13.00;99.90;;;;;;3058582;19;20014;-67
2022/10/06 01:07:02;;;;;;;8.63;1.30;;;12.80;99.90;;;;;;3057707;19;20022;-67
2022/10/06 01:08:07;;;;;;;8.95;1.70;;;12.80;99.90;;;;;;3057430;19;20031;-68
2022/10/06 01:09:09;;;;;;;7.95;1.67;;;12.80;99.90;;;;;;3057780;19;20455;-68
2022/10/06 01:10:12;;;;;;;7.25;1.35;;;12.70;99.90;;;;;;3057322;19;20046;-69
2022/10/06 01:11:14;;;;;;;5.57;1.50;;;12.60;99.90;;;;;;3057767;19;20018;-69
2022/10/06 01:12:18;;;;;;;8.07;1.45;;;12.80;99.90;;;;;;3057536;19;20016;-69
2022/10/06 01:13:20;;;;;;;4.80;1.40;;;12.70;99.90;;;;;;3055706;19;20003;-68
2022/10/06 01:14:27;;;;;;;;;;;13.80;99.90;;;;;;3057904;19;20019;-67
2022/10/06 01:15:28;;;;;;;6.70;1.58;;;12.60;99.90;;;;;;3057640;19;19918;-66
2022/10/06 01:16:36;;;;;;;7.15;1.30;;;12.60;99.90;;;;;;3059307;19;20014;-68
2022/10/06 01:17:42;;;;;;;6.30;1.20;;;13.70;99.90;;;;;;3060617;19;20006;-69
2022/10/06 01:18:49;;;;;;;6.70;1.42;;;13.10;99.90;;;;;;3060292;19;20010;-66
2022/10/06 01:19:54;;;;;;;8.05;1.38;;;12.60;99.90;;;;;;3062084;19;20031;-66
2022/10/06 01:21:05;;;;;;;4.47;1.20;;;12.80;99.90;;;;;;3060308;19;20014;-66
2022/10/06 01:22:07;;;;;;;4.15;1.38;;;12.60;99.90;;;;;;3062033;19;20022;-67
2022/10/06 01:23:14;;;;;;;7.82;1.58;;;12.70;99.90;;;;;;3060498;19;20471;-66
2022/10/06 01:24:17;;;;;;;6.72;1.48;;;12.50;99.90;;;;;;3059504;19;20038;-67
2022/10/06 01:25:22;;;;;;;7.07;1.60;;;12.50;99.90;;;;;;3060287;19;20358;-69
2022/10/06 01:26:24;;;;;;;6.43;1.23;;;12.50;99.90;;;;;;3059373;19;20017;-69
2022/10/06 01:27:31;;;;;;;10.32;1.70;;;12.80;99.90;;;;;;3060182;19;20088;-69
2022/10/06 01:28:33;;;;;;;7.50;1.50;;;12.30;99.90;;;;;;3060365;19;20009;-69
2022/10/06 01:29:38;;;;;;;7.93;1.45;;;12.40;99.90;;;;;;3060287;19;20014;-68
2022/10/06 01:30:45;;;;;;;4.10;1.20;;;12.20;99.90;;;;;;3060288;19;20002;-69
2022/10/06 01:31:48;;;;;;;7.20;1.65;;;12.40;99.90;;;;;;3059644;19;20011;-69
2022/10/06 01:32:50;;;;;;;4.60;1.20;;;12.50;99.90;;;;;;3061893;19;20468;-69
2022/10/06 01:33:54;;;;;;;5.07;1.27;;;12.40;99.90;;;;;;3060008;19;20019;-67
2022/10/06 01:34:56;;;;;;;7.60;1.23;;;12.50;99.90;;;;;;3060406;19;20030;-66
2022/10/06 01:36:00;;;;;;;5.75;2.00;;;12.50;99.90;;;;;;3060301;19;20025;-66
2022/10/06 01:37:01;;;;;;;8.40;1.50;;;13.00;99.90;;;;;;3060356;19;20015;-67
2022/10/06 01:38:05;;;;;;;5.05;1.35;;;12.50;99.90;;;;;;3060037;19;20019;-67
2022/10/06 01:39:09;;;;;;;8.07;1.42;;;12.20;99.90;;;;;;3060013;19;20015;-67
2022/10/06 01:40:13;;;;;;;7.07;1.40;;;12.40;99.90;;;;;;3060595;19;20014;-66
2022/10/06 01:41:15;;;;;;;9.45;1.60;;;12.40;99.90;;;;;;3059991;19;20472;-69
2022/10/06 01:42:19;;;;;;;5.53;1.40;;;12.40;99.90;;;;;;3060048;19;20373;-68
2022/10/06 01:43:20;;;;;;;6.00;1.30;;;12.40;99.90;;;;;;3059679;19;20037;-69
2022/10/06 01:44:24;;;;;;;8.07;1.42;;;12.30;99.90;;;;;;3060165;19;20037;-69
2022/10/06 01:45:26;;;;;;;8.30;1.60;;;12.30;99.90;;;;;;3060181;19;20014;-69
2022/10/06 01:46:31;;;;;;;8.57;1.60;;;12.20;99.90;;;;;;3059518;19;19998;-68
2022/10/06 01:47:32;;;;;;;7.55;1.40;;;12.10;99.90;;;;;;3059482;19;20018;-69
2022/10/06 01:48:37;;;;;;;8.00;1.40;;;12.30;99.90;;;;;;3060161;19;20507;-69
2022/10/06 01:49:39;;;;;;;6.72;1.65;;;12.30;99.90;;;;;;3060129;19;20011;-69
2022/10/06 01:50:43;;;;;;;4.53;1.30;;;12.30;99.90;;;;;;3061153;19;20452;-68
2022/10/06 01:51:45;;;;;;;6.22;1.40;;;12.20;99.90;;;;;;3059801;19;20010;-67
2022/10/06 01:52:49;;;;;;;5.78;1.40;;;12.30;99.90;;;;;;3060235;19;20003;-67
2022/10/06 01:53:50;;;;;;;6.50;1.58;;;12.30;99.90;;;;;;3059430;19;20018;-68
2022/10/06 01:54:57;;;;;;;5.65;1.48;;;12.50;99.90;;;;;;3060481;19;20343;-68
2022/10/06 01:55:59;;;;;;;5.43;1.40;;;12.40;99.90;;;;;;3060470;19;20510;-68
2022/10/06 01:57:03;;;;;;;7.60;1.60;;;12.40;99.90;;;;;;3059908;19;20014;-68
2022/10/06 01:58:04;;;;;;;5.43;1.30;;;12.80;99.90;;;;;;3060668;19;20014;-67
2022/10/06 01:59:08;;;;;;;5.05;1.63;;;12.60;99.90;;;;;;3060085;19;20015;-67
2022/10/06 02:00:11;;;;;;;7.90;1.45;;;12.00;99.90;;;;;;3059607;19;20027;-68
2022/10/06 02:01:15;;;;;;;4.45;1.45;;;12.30;99.90;;;;;;3059996;19;20365;-67
2022/10/06 02:02:17;;;;;;;8.32;1.40;;;12.00;99.90;;;;;;3059609;19;20383;-67
2022/10/06 02:03:21;;;;;;;8.80;1.80;;;12.30;99.90;;;;;;3060879;19;20011;-67
2022/10/06 02:04:22;;;;;;;9.30;1.60;;;12.30;99.90;;;;;;3057958;19;20031;-67
2022/10/06 02:05:26;;;;;;;10.02;1.90;;;12.20;99.90;;;;;;3058530;19;20103;-66
2022/10/06 02:06:27;;;;;;;9.95;1.70;;;12.30;99.90;;;;;;3060535;19;20524;-67
2022/10/06 02:07:32;;;;;;;12.00;1.80;;;12.60;99.90;;;;;;3059996;19;20018;-67
2022/10/06 02:08:34;;;;;;;8.65;2.15;;;12.30;99.90;;;;;;3058850;19;20041;-67
2022/10/06 02:09:38;;;;;;;7.15;1.50;;;12.30;99.90;;;;;;3060022;19;20021;-67
2022/10/06 02:10:42;;;;;;;6.88;1.60;;;12.20;99.90;;;;;;3059731;19;20149;-67
2022/10/06 02:11:46;;;;;;;5.43;1.60;;;12.40;99.90;;;;;;3059176;19;19999;-67
2022/10/06 02:12:50;;;;;;;6.68;1.70;;;12.20;99.90;;;;;;3060027;19;20015;-67
2022/10/06 02:13:54;;;;;;;12.07;1.60;;;12.60;99.90;;;;;;3060290;19;20021;-67
2022/10/06 02:14:56;;;;;;;9.82;1.50;;;12.30;99.90;;;;;;3059528;19;20076;-67
2022/10/06 02:16:00;;;;;;;11.68;1.92;;;12.10;99.90;;;;;;3059999;19;20021;-67
2022/10/06 02:17:03;;;;;;;11.02;1.75;;;12.10;99.90;;;;;;3059672;19;20010;-67
2022/10/06 02:18:09;;;;;;;8.50;1.50;;;12.20;99.90;;;;;;3060762;19;20019;-67
2022/10/06 02:19:13;;;;;;;10.18;1.50;;;12.10;99.90;;;;;;3059758;19;20361;-67
2022/10/06 02:20:18;;;;;;;8.30;1.60;;;12.10;99.90;;;;;;3059798;19;20341;-67
2022/10/06 02:21:21;;;;;;;6.75;1.75;;;12.10;99.90;;;;;;3059619;19;20118;-67
2022/10/06 02:22:25;;;;;;;8.55;1.77;;;12.20;99.90;;;;;;3059636;19;20045;-67
2022/10/06 02:23:27;;;;;;;9.05;1.60;;;12.30;99.90;;;;;;3059246;19;20543;-67
2022/10/06 02:24:31;;;;;;;5.95;1.70;;;12.30;99.90;;;;;;3060011;19;20010;-68
2022/10/06 02:25:34;;;;;;;7.07;1.50;;;12.40;99.90;;;;;;3059468;19;20490;-67
2022/10/06 02:26:40;;;;;;;10.95;1.67;;;12.00;99.90;;;;;;3058833;19;20011;-67
2022/10/06 02:27:42;;;;;;;10.35;1.60;;;12.40;99.90;;;;;;3059074;19;20015;-67
2022/10/06 02:28:46;;;;;;;9.85;1.90;;;12.10;99.90;;;;;;3059872;19;20356;-67
2022/10/06 02:29:48;;;;;;;6.85;1.70;;;12.10;99.90;;;;;;3060135;19;20034;-67
2022/10/06 02:30:52;;;;;;;6.00;1.60;;;12.00;99.90;;;;;;3059432;19;20091;-67
2022/10/06 02:31:54;;;;;;;9.55;1.52;;;11.90;99.90;;;;;;3059487;19;20082;-67
2022/10/06 02:32:58;;;;;;;7.28;1.60;;;12.10;99.90;;;;;;3060060;19;20013;-67
2022/10/06 02:33:59;;;;;;;7.82;1.50;;;12.10;99.90;;;;;;3059303;19;20010;-67
2022/10/06 02:35:05;;;;;;;8.15;1.60;;;12.20;99.90;;;;;;3059475;19;20007;-67
2022/10/06 02:36:09;;;;;;;8.60;1.80;;;12.10;99.90;;;;;;3060836;19;20031;-66
2022/10/06 02:37:14;;;;;;;10.07;2.10;;;12.40;99.90;;;;;;3059584;19;20011;-67
2022/10/06 02:38:16;;;;;;;14.95;2.00;;;12.30;99.90;;;;;;3059085;19;20006;-67
2022/10/06 02:39:20;;;;;;;9.32;2.05;;;11.90;99.90;;;;;;3059358;19;20036;-67
2022/10/06 02:40:21;;;;;;;6.40;1.80;;;12.00;99.90;;;;;;3059173;19;20011;-67
2022/10/06 02:41:25;;;;;;;14.18;2.10;;;11.90;99.90;;;;;;3061258;19;20014;-67
2022/10/06 02:42:30;;;;;;;10.30;2.05;;;11.90;99.90;;;;;;3059265;19;20015;-67
2022/10/06 02:43:36;;;;;;;11.65;1.80;;;12.00;99.90;;;;;;3058996;19;20015;-67
2022/10/06 02:44:38;;;;;;;6.18;1.63;;;12.20;99.90;;;;;;3059345;19;20010;-67
2022/10/06 02:45:43;;;;;;;11.00;2.15;;;12.10;99.90;;;;;;3059311;19;20010;-67
2022/10/06 02:46:44;;;;;;;5.03;1.83;;;11.90;99.90;;;;;;3059180;19;20015;-67
2022/10/06 02:47:48;;;;;;;13.18;2.20;;;12.00;99.90;;;;;;3058735;19;20078;-67
2022/10/06 02:48:50;;;;;;;13.98;1.88;;;11.90;99.90;;;;;;3057837;19;20014;-67
2022/10/06 02:49:54;;;;;;;10.63;1.75;;;12.00;99.90;;;;;;3059203;19;20551;-67
2022/10/06 02:50:57;;;;;;;15.27;2.25;;;12.30;99.90;;;;;;3057977;19;20015;-67
2022/10/06 02:52:01;;;;;;;12.60;1.90;;;12.00;99.90;;;;;;3059369;19;20086;-67
2022/10/06 02:53:05;;;;;;;11.10;1.90;;;11.90;99.90;;;;;;3059422;19;20416;-67
2022/10/06 02:54:09;;;;;;;9.82;1.55;;;12.00;99.90;;;;;;3057567;19;20023;-68
2022/10/06 02:55:12;;;;;;;13.05;1.85;;;11.60;99.90;;;;;;3059055;19;20014;-67
2022/10/06 02:56:17;;;;;;;10.13;1.60;;;11.80;99.90;;;;;;3059080;19;20074;-67
2022/10/06 02:57:18;;;;;;;9.10;2.05;;;11.80;99.90;;;;;;3059110;19;20022;-67
2022/10/06 02:58:25;;;;;;;9.05;1.65;;;12.00;99.90;;;;;;3060831;19;20024;-67
2022/10/06 02:59:26;;;;;;;6.85;1.88;;;11.90;99.90;;;;;;3059107;19;20010;-67
2022/10/06 03:00:30;;;;;;;11.48;2.05;;;11.90;99.90;;;;;;3057936;19;20049;-67
2022/10/06 03:01:32;;;;;;;6.97;2.00;;;12.20;99.90;;;;;;3058072;19;20506;-67
2022/10/06 03:02:36;;;;;;;7.45;1.38;;;12.00;99.90;;;;;;3058983;19;20523;-67
2022/10/06 03:03:38;;;;;;;13.82;1.83;;;11.70;99.90;;;;;;3059576;19;20009;-68
2022/10/06 03:04:43;;;;;;;9.48;1.75;;;11.70;99.90;;;;;;3058981;19;20006;-67
2022/10/06 03:05:44;;;;;;;12.00;1.90;;;12.00;99.90;;;;;;3059148;19;20521;-68
2022/10/06 03:06:50;;;;;;;10.55;1.85;;;11.90;99.90;;;;;;3058080;19;20647;-67
2022/10/06 03:07:51;;;;;;;10.02;1.92;;;11.80;99.90;;;;;;3058962;19;20018;-67
2022/10/06 03:08:57;;;;;;;6.80;1.95;;;11.70;99.90;;;;;;3058485;19;20526;-67
2022/10/06 03:09:58;;;;;;;9.80;1.88;;;12.20;99.90;;;;;;3059519;19;20020;-67
2022/10/06 03:11:05;;;;;;;8.77;1.65;;;11.50;99.90;;;;;;3058496;19;20018;-67
2022/10/06 03:12:07;;;;;;;8.82;1.60;;;11.70;99.90;;;;;;3059993;19;20021;-67
2022/10/06 03:13:10;;;;;;;7.28;1.95;;;11.60;99.90;;;;;;3058497;19;20025;-67
2022/10/06 03:14:14;;;;;;;6.53;1.50;;;11.70;99.90;;;;;;3058689;19;20356;-67
2022/10/06 03:15:19;;;;;;;14.98;2.10;;;11.50;99.90;;;;;;3058723;19;20014;-68
2022/10/06 03:16:24;;;;;;;8.93;1.75;;;12.60;99.90;;;;;;3058421;19;20025;-67
2022/10/06 03:17:28;;;;;;;10.57;2.08;;;11.60;99.90;;;;;;3056801;19;20007;-67
2022/10/06 03:18:30;;;;;;;13.25;1.83;;;;;;;;;;3059547;19;20610;-68
2022/10/06 03:19:34;;;;;;;11.73;1.92;;;11.60;99.90;;;;;;3058201;19;20029;-68
2022/10/06 03:20:36;;;;;;;7.13;2.03;;;11.60;99.90;;;;;;3059428;19;20013;-67
2022/10/06 03:21:42;;;;;;;8.85;1.73;;;11.80;99.90;;;;;;3059319;19;20365;-67
2022/10/06 03:22:43;;;;;;;11.68;1.75;;;11.90;99.90;;;;;;3058313;19;20368;-67
2022/10/06 03:23:49;;;;;;;8.00;1.92;;;11.80;99.90;;;;;;3059545;19;20019;-66
2022/10/06 03:24:50;;;;;;;9.90;2.50;;;11.50;99.90;;;;;;3058661;19;20049;-67
2022/10/06 03:25:58;;;;;;;9.07;2.05;;;11.40;99.90;;;;;;3058574;19;20011;-67
2022/10/06 03:26:59;;;;;;;10.07;2.10;;;11.50;99.90;;;;;;3058971;19;20014;-67
2022/10/06 03:28:03;;;;;;;9.95;1.70;;;11.80;99.90;;;;;;3057858;19;20042;-67
2022/10/06 03:29:05;;;;;;;14.38;1.70;;;11.90;99.90;;;;;;3060196;19;20109;-68
2022/10/06 03:30:11;;;;;;;;;;;11.60;99.90;;;;;;3058961;19;20006;-66
2022/10/06 03:31:13;;;;;;;9.00;1.90;;;11.50;99.90;;;;;;3058114;19;19918;-67
2022/10/06 03:32:18;;;;;;;8.35;1.85;;;11.50;99.90;;;;;;3059143;19;20038;-67
2022/10/06 03:33:19;;;;;;;7.60;1.65;;;;;;;;;;3058395;19;20352;-67
2022/10/06 03:34:23;;;;;;;11.80;1.85;;;11.90;99.90;;;;;;3059647;19;20048;-67
2022/10/06 03:35:24;;;;;;;8.43;1.52;;;11.50;99.90;;;;;;3058541;19;20023;-67
2022/10/06 03:36:31;;;;;;;8.73;1.90;;;11.30;99.90;;;;;;3058588;19;20487;-67
2022/10/06 03:37:32;;;;;;;7.80;1.65;;;11.60;99.90;;;;;;3058510;19;20458;-67
2022/10/06 03:38:37;;;;;;;8.82;2.00;;;11.40;99.90;;;;;;3056804;19;20014;-67
2022/10/06 03:39:39;;;;;;;8.40;1.85;;;11.80;99.90;;;;;;3057945;19;20010;-67
2022/10/06 03:40:42;;;;;;;8.70;1.67;;;11.80;99.90;;;;;;3058419;19;20035;-68
2022/10/06 03:41:44;;;;;;;9.48;2.00;;;11.40;99.90;;;;;;3058401;19;20425;-68
2022/10/06 03:42:48;;;;;;;11.63;1.90;;;11.40;99.90;;;;;;3057946;19;20483;-68
2022/10/06 03:43:51;;;;;;;11.07;2.10;;;11.70;99.90;;;;;;3058563;19;20030;-67
2022/10/06 03:44:55;;;;;;;6.38;1.83;;;11.50;99.90;;;;;;3056949;19;20022;-67
2022/10/06 03:46:00;;;;;;;8.02;1.85;;;11.20;99.90;;;;;;3058356;19;20368;-68
2022/10/06 03:47:04;;;;;;;10.25;2.13;;;11.40;99.90;;;;;;3058101;19;20013;-68
2022/10/06 03:48:05;;;;;;;6.43;2.00;;;11.70;99.90;;;;;;3059087;19;20031;-67
2022/10/06 03:49:10;;;;;;;6.03;1.58;;;11.40;99.90;;;;;;3059502;19;20031;-68
2022/10/06 03:50:11;;;;;;;7.60;1.73;;;11.10;99.90;;;;;;3058366;19;20009;-67
2022/10/06 03:51:17;;;;;;;6.60;1.80;;;11.30;99.90;;;;;;3059637;19;20014;-68
2022/10/06 03:52:18;;;;;;;8.10;1.85;;;11.40;99.90;;;;;;3058426;19;20021;-67
2022/10/06 03:53:24;;;;;;;9.52;1.80;;;11.40;99.90;;;;;;3059342;19;20026;-67
2022/10/06 03:54:28;;;;;;;9.73;1.98;;;11.20;99.90;;;;;;3057388;19;20014;-68
2022/10/06 03:55:29;;;;;;;7.68;1.85;;;11.20;99.90;;;;;;3059035;19;20014;-67
2022/10/06 03:56:35;;;;;;;12.23;1.88;;;11.30;99.90;;;;;;3058374;19;20003;-68
2022/10/06 03:57:36;;;;;;;7.60;1.80;;;11.30;99.90;;;;;;3058267;19;20381;-68
2022/10/06 03:58:42;;;;;;;10.15;2.63;;;11.20;99.90;;;;;;3058184;19;20351;-68
2022/10/06 03:59:43;;;;;;;8.13;1.77;;;11.10;99.90;;;;;;3057836;19;20025;-68
2022/10/06 04:00:47;;;;;;;12.00;1.92;;;11.40;99.90;;;;;;3057522;19;20013;-67
2022/10/06 04:01:51;;;;;;;8.90;1.67;;;11.10;99.90;;;;;;3059103;19;20073;-68
2022/10/06 04:02:55;;;;;;;5.38;1.85;;;11.30;99.90;;;;;;3058300;19;20011;-67
2022/10/06 04:03:58;;;;;;;10.18;1.73;;;11.20;99.90;;;;;;3058241;19;20022;-68
2022/10/06 04:05:02;;;;;;;9.85;2.47;;;11.50;99.90;;;;;;3058384;19;20014;-68
2022/10/06 04:06:05;;;;;;;7.45;2.00;;;11.50;99.90;;;;;;3059630;19;20014;-68
2022/10/06 04:07:10;;;;;;;5.47;1.65;;;11.30;99.90;;;;;;3057812;19;20017;-68
2022/10/06 04:08:13;;;;;;;6.65;1.73;;;11.10;99.90;;;;;;3057510;19;20106;-67
2022/10/06 04:09:17;;;;;;;10.30;2.17;;;11.10;99.90;;;;;;3057079;19;20002;-67
2022/10/06 04:10:18;;;;;;;4.60;1.80;;;10.80;99.90;;;;;;3058674;19;20015;-68
2022/10/06 04:11:25;;;;;;;6.35;2.30;;;11.10;99.90;;;;;;3058601;19;20448;-67
2022/10/06 04:12:26;;;;;;;11.10;1.92;;;10.80;99.90;;;;;;3062744;19;20010;-68
2022/10/06 04:13:30;;;;;;;7.60;1.80;;;11.10;99.90;;;;;;3059080;19;20018;-67
2022/10/06 04:14:31;;;;;;;7.35;1.73;;;11.00;99.90;;;;;;3060840;19;20014;-67
2022/10/06 04:15:35;;;;;;;9.88;1.80;;;11.10;99.90;;;;;;3061043;19;20038;-67
2022/10/06 04:16:41;;;;;;;8.23;1.48;;;10.70;99.90;;;;;;3060741;19;20007;-68
2022/10/06 04:17:45;;;;;;;8.48;1.73;;;11.30;99.90;;;;;;3058028;19;20033;-67
2022/10/06 04:18:52;;;;;;;9.52;2.17;;;11.10;99.90;;;;;;3058491;19;20356;-68
2022/10/06 04:19:54;;;;;;;5.28;1.65;;;11.00;99.90;;;;;;3058033;19;20030;-68
2022/10/06 04:21:01;;;;;;;8.00;1.70;;;10.80;99.90;;;;;;3058285;19;20011;-68
2022/10/06 04:22:06;;;;;;;10.25;1.92;;;11.00;99.90;;;;;;3057889;19;20031;-68
2022/10/06 04:23:08;;;;;;;7.15;1.60;;;11.00;99.90;;;;;;3059248;19;20014;-68
2022/10/06 04:24:12;;;;;;;7.53;1.85;;;11.20;99.90;;;;;;3057737;19;20484;-67
2022/10/06 04:25:14;;;;;;;6.40;1.48;;;11.00;99.90;;;;;;3058027;19;20007;-68
2022/10/06 04:26:20;;;;;;;11.38;2.00;;;11.00;99.90;;;;;;3057797;19;20031;-67
2022/10/06 04:27:27;;;;;;;14.18;1.95;;;11.10;99.90;;;;;;3057748;19;20018;-68
2022/10/06 04:28:31;;;;;;;7.00;1.77;;;11.20;99.90;;;;;;3057947;19;20018;-67
2022/10/06 04:29:32;;;;;;;8.88;2.30;;;11.10;99.90;;;;;;3057974;19;20035;-68
2022/10/06 04:30:36;;;;;;;10.23;1.75;;;11.10;99.90;;;;;;3057969;19;20010;-68
2022/10/06 04:31:39;;;;;;;7.70;1.73;;;10.90;99.90;;;;;;3057611;19;20506;-68
2022/10/06 04:32:44;;;;;;;9.05;1.60;;;11.20;99.90;;;;;;3057696;19;20489;-67
2022/10/06 04:33:51;;;;;;;9.63;2.25;;;11.00;99.90;;;;;;3057715;19;20022;-67
2022/10/06 04:34:55;;;;;;;9.80;1.60;;;11.10;99.90;;;;;;3057839;19;20498;-67
2022/10/06 04:35:57;;;;;;;5.22;1.70;;;11.00;99.90;;;;;;3059439;19;20014;-68
2022/10/06 04:37:01;;;;;;;9.77;2.05;;;11.20;99.90;;;;;;3058121;19;20014;-68
2022/10/06 04:38:02;;;;;;;8.15;1.92;;;11.00;99.90;;;;;;3058015;19;20026;-67
2022/10/06 04:39:07;;;;;;;8.43;1.75;;;11.00;99.90;;;;;;3057485;19;20018;-68
2022/10/06 04:40:09;;;;;;;11.18;1.88;;;11.20;99.90;;;;;;3059487;19;20014;-68
2022/10/06 04:41:14;;;;;;;9.32;1.88;;;11.10;99.90;;;;;;3057701;19;20070;-68
2022/10/06 04:42:16;;;;;;;7.45;1.65;;;10.90;99.90;;;;;;3056505;19;20031;-68
2022/10/06 04:43:19;;;;;;;6.75;1.65;;;11.00;99.90;;;;;;3056556;19;20051;-67
2022/10/06 04:44:21;;;;;;;10.48;1.90;;;;;;;;;;3057807;19;20013;-67
2022/10/06 04:45:25;;;;;;;9.10;1.60;;;11.10;99.90;;;;;;3057680;19;20337;-67
2022/10/06 04:46:27;;;;;;;7.60;1.80;;;11.00;99.90;;;;;;3059404;19;20017;-67
2022/10/06 04:47:31;;;;;;;8.13;1.75;;;10.80;99.90;;;;;;3056787;19;20015;-68
2022/10/06 04:48:33;;;;;;;6.55;2.00;;;10.90;99.90;;;;;;3057680;19;20010;-67
2022/10/06 04:49:39;;;;;;;13.15;1.92;;;11.10;99.90;;;;;;3056657;19;20484;-67
2022/10/06 04:50:40;;;;;;;7.57;1.88;;;11.00;99.90;;;;;;3060461;19;20018;-68
2022/10/06 04:51:44;;;;;;;7.00;1.48;;;10.90;99.90;;;;;;3061300;19;20038;-68
2022/10/06 04:52:45;;;;;;;5.70;1.70;;;11.00;99.90;;;;;;3060920;19;20010;-67
2022/10/06 04:53:50;;;;;;;10.32;1.92;;;11.00;99.90;;;;;;3060271;19;20080;-68
2022/10/06 04:54:51;;;;;;;8.13;1.80;;;10.80;99.90;;;;;;3060943;19;20004;-68
2022/10/06 04:56:05;;;;;;;10.02;1.98;;;10.90;99.90;;;;;;3060621;19;20035;-67
2022/10/06 04:57:07;;;;;;;11.13;1.85;;;10.90;99.90;;;;;;3060986;19;20015;-68
2022/10/06 04:58:11;;;;;;;9.40;1.85;;;11.20;99.90;;;;;;3061336;19;20089;-68
2022/10/06 04:59:13;;;;;;;11.05;2.22;;;;;;;;;;3060695;19;20021;-67
2022/10/06 05:00:26;;;;;;;12.38;2.05;;;10.90;99.90;;;;;;3060888;19;20017;-67
2022/10/06 05:01:30;;;;;;;9.07;1.77;;;10.80;99.90;;;;;;3060563;19;20010;-67
2022/10/06 05:02:35;;;;;;;7.22;1.90;;;11.00;99.90;;;;;;3060652;19;19999;-67
2022/10/06 05:03:38;;;;;;;7.07;1.77;;;10.90;99.90;;;;;;3060192;19;20031;-68
2022/10/06 05:04:44;;;;;;;10.75;1.98;;;11.20;99.90;;;;;;3060739;19;20003;-68
2022/10/06 05:05:45;;;;;;;6.78;1.75;;;10.70;99.90;;;;;;3060551;19;20468;-67
2022/10/06 05:06:49;;;;;;;7.85;2.08;;;11.10;99.90;;;;;;3061015;19;20037;-68
2022/10/06 05:07:51;;;;;;;5.63;1.38;;;;;;;;;;3058177;19;20015;-67
2022/10/06 05:08:57;;;;;;;5.45;1.50;;;10.80;99.90;;;;;;3059781;19;20082;-68
2022/10/06 05:09:58;;;;;;;9.07;2.00;;;10.80;99.90;;;;;;3060287;19;20024;-67
2022/10/06 05:11:03;;;;;;;10.32;1.80;;;10.80;99.90;;;;;;3060750;19;20006;-68
2022/10/06 05:12:04;;;;;;;12.27;1.77;;;10.70;99.90;;;;;;3060497;19;20010;-68
2022/10/06 05:13:11;;;;;;;;;;;10.80;99.90;;;;;;3060837;19;20551;-68
2022/10/06 05:14:12;;;;;;;9.00;1.70;;;10.70;99.90;;;;;;3060941;19;20022;-67
2022/10/06 05:15:17;;;;;;;7.72;2.17;;;10.90;99.90;;;;;;3060634;19;20020;-67
2022/10/06 05:16:18;;;;;;;4.95;1.63;;;10.80;99.90;;;;;;3060310;19;20022;-68
2022/10/06 05:17:22;;;;;;;9.43;1.80;;;10.70;99.90;;;;;;3060647;19;20633;-67
2022/10/06 05:18:23;;;;;;;7.50;2.00;;;10.70;99.90;;;;;;3060434;19;20019;-67
2022/10/06 05:19:27;;;;;;;8.63;1.60;;;10.60;99.90;;;;;;3060550;19;20014;-67
2022/10/06 05:20:32;;;;;;;12.23;1.88;;;10.70;99.90;;;;;;3062297;19;20019;-68
2022/10/06 05:21:36;;;;;;;11.05;2.10;;;10.60;99.90;;;;;;3060769;19;20009;-67
2022/10/06 05:22:38;;;;;;;11.90;2.08;;;10.70;99.90;;;;;;3059596;19;20027;-68
2022/10/06 05:23:43;;;;;;;7.78;1.80;;;10.60;99.90;;;;;;3059646;19;20625;-68
2022/10/06 05:24:44;;;;;;;10.23;1.90;;;11.00;99.90;;;;;;3060218;19;20043;-67
2022/10/06 05:25:52;;;;;;;8.73;2.03;;;10.50;99.90;;;;;;3060831;19;20035;-68
2022/10/06 05:26:58;;;;;;;9.98;1.80;;;10.90;99.90;;;;;;3060334;19;20029;-68
2022/10/06 05:27:59;;;;;;;9.90;1.75;;;10.50;99.90;;;;;;3059152;19;20022;-68
2022/10/06 05:29:03;;;;;;;4.80;1.50;;;10.70;99.90;;;;;;3060291;19;20018;-68
2022/10/06 05:30:06;;;;;;;7.38;1.90;;;10.50;99.90;;;;;;3060230;19;20015;-68
2022/10/06 05:31:13;;;;;;;11.27;2.42;;;10.80;99.90;;;;;;3061186;19;20414;-67
2022/10/06 05:32:14;;;;;;;10.57;2.15;;;10.50;99.90;;;;;;3059420;19;20014;-68